createdAt,value
2018-04-15T00:01:26.026Z,55.60
2018-04-15T00:03:53.810Z,54.40
2018-04-15T00:06:20.938Z,54.40
2018-04-15T00:08:48.044Z,54.30
2018-04-15T00:11:15.204Z,54.80
2018-04-15T00:13:42.231Z,53.90
2018-04-15T00:16:09.239Z,54.40
2018-04-15T00:18:36.274Z,53.90
2018-04-15T00:21:04.164Z,54.60
2018-04-15T00:23:31.212Z,54.60
2018-04-15T00:25:58.264Z,54.00
2018-04-15T00:28:25.383Z,53.30
2018-04-15T00:30:53.145Z,52.90
2018-04-15T00:33:20.931Z,52.80
2018-04-15T00:35:48.703Z,52.90
2018-04-15T00:38:15.723Z,52.90
2018-04-15T00:40:43.830Z,53.00
2018-04-15T00:43:10.822Z,53.20
2018-04-15T00:45:37.894Z,52.70
2018-04-15T00:48:05.667Z,52.60
2018-04-15T00:50:32.729Z,52.60
2018-04-15T00:52:59.749Z,53.00
2018-04-15T00:55:27.511Z,53.70
2018-04-15T00:57:54.536Z,52.90
2018-04-15T01:00:21.580Z,52.70
2018-04-15T01:02:48.587Z,52.50
2018-04-15T01:05:15.657Z,52.40
2018-04-15T01:07:42.675Z,52.40
2018-04-15T01:10:10.556Z,52.00
2018-04-15T01:12:37.605Z,51.60
2018-04-15T01:15:04.751Z,51.40
2018-04-15T01:17:31.813Z,50.90
2018-04-15T01:19:58.860Z,51.00
2018-04-15T01:22:25.860Z,50.80
2018-04-15T01:24:53.648Z,49.70
2018-04-15T01:27:20.726Z,49.70
2018-04-15T01:29:47.765Z,50.20
2018-04-15T01:32:14.790Z,50.60
2018-04-15T01:34:42.547Z,50.90
2018-04-15T01:37:10.300Z,51.10
2018-04-15T01:39:37.284Z,51.10
2018-04-15T01:42:04.286Z,50.90
2018-04-15T01:44:31.255Z,50.40
2018-04-15T01:46:59.405Z,50.00
2018-04-15T01:49:27.445Z,50.60
2018-04-15T01:51:54.564Z,50.70
2018-04-15T01:54:21.551Z,50.20
2018-04-15T01:56:48.730Z,50.30
2018-04-15T01:59:15.749Z,50.50
2018-04-15T02:01:44.154Z,48.90
2018-04-15T02:04:11.216Z,49.30
2018-04-15T02:06:39.037Z,49.40
2018-04-15T02:09:06.065Z,49.30
2018-04-15T02:11:33.120Z,49.70
2018-04-15T02:14:00.183Z,48.40
2018-04-15T02:16:27.155Z,47.70
2018-04-15T02:18:54.209Z,47.70
2018-04-15T02:21:22.757Z,47.30
2018-04-15T02:23:50.357Z,47.50
2018-04-15T02:26:18.136Z,48.20
2018-04-15T02:28:45.169Z,48.20
2018-04-15T02:31:12.960Z,49.40
2018-04-15T02:33:40.000Z,49.40
2018-04-15T02:36:06.974Z,48.80
2018-04-15T02:38:34.028Z,48.50
2018-04-15T02:41:01.060Z,48.30
2018-04-15T02:43:28.094Z,48.60
2018-04-15T02:45:55.185Z,47.80
2018-04-15T02:48:22.175Z,48.10
2018-04-15T02:50:49.243Z,47.80
2018-04-15T02:53:16.339Z,47.90
2018-04-15T02:55:43.446Z,48.90
2018-04-15T02:58:10.544Z,49.30
2018-04-15T03:00:37.574Z,50.00
2018-04-15T03:03:04.618Z,48.90
2018-04-15T03:05:31.621Z,49.40
2018-04-15T03:07:58.674Z,49.60
2018-04-15T03:10:25.799Z,50.10
2018-04-15T03:12:53.584Z,50.60
2018-04-15T03:15:20.643Z,50.50
2018-04-15T03:17:47.711Z,49.80
2018-04-15T03:20:14.765Z,49.20
2018-04-15T03:22:41.811Z,49.60
2018-04-15T03:25:08.830Z,49.50
2018-04-15T03:27:35.863Z,49.10
2018-04-15T03:30:03.991Z,48.80
2018-04-15T03:32:31.028Z,49.60
2018-04-15T03:34:58.039Z,49.20
2018-04-15T03:37:25.091Z,48.60
2018-04-15T03:39:52.107Z,48.40
2018-04-15T03:42:19.883Z,48.40
2018-04-15T03:44:47.745Z,49.00
2018-04-15T03:47:15.533Z,49.10
2018-04-15T03:49:42.586Z,49.00
2018-04-15T03:52:09.620Z,49.90
2018-04-15T03:54:36.705Z,49.70
2018-04-15T03:57:03.915Z,49.30
2018-04-15T03:59:31.071Z,49.00
2018-04-15T04:01:58.123Z,47.70
2018-04-15T04:04:25.148Z,46.90
2018-04-15T04:06:52.178Z,46.50
2018-04-15T04:09:19.960Z,48.10
2018-04-15T04:11:47.771Z,48.20
2018-04-15T04:14:14.826Z,48.20
2018-04-15T04:16:41.883Z,48.70
2018-04-15T04:19:26.973Z,48.50
2018-04-15T04:22:12.091Z,47.20
2018-04-15T04:24:57.430Z,47.10
2018-04-15T04:27:25.358Z,48.00
2018-04-15T04:29:52.331Z,48.00
2018-04-15T04:32:19.291Z,50.10
2018-04-15T04:34:46.333Z,51.00
2018-04-15T04:37:13.303Z,51.70
2018-04-15T04:39:41.061Z,53.30
2018-04-15T04:42:08.766Z,54.00
2018-04-15T04:44:35.741Z,54.00
2018-04-15T04:47:02.738Z,54.40
2018-04-15T04:49:29.790Z,55.20
2018-04-15T04:51:57.575Z,57.10
2018-04-15T04:54:24.628Z,57.10
2018-04-15T04:56:51.671Z,56.70
2018-04-15T04:59:18.727Z,56.90
2018-04-15T05:01:45.805Z,56.60
2018-04-15T05:04:13.588Z,56.40
2018-04-15T05:06:40.643Z,56.40
2018-04-15T05:09:07.688Z,55.40
2018-04-15T05:11:34.715Z,54.70
2018-04-15T05:14:02.518Z,54.00
2018-04-15T05:16:29.478Z,54.00
2018-04-15T05:18:56.471Z,54.80
2018-04-15T05:21:23.451Z,53.70
2018-04-15T05:23:50.461Z,51.80
2018-04-15T05:26:18.188Z,52.40
2018-04-15T05:28:45.168Z,52.40
2018-04-15T05:31:12.215Z,52.20
2018-04-15T05:33:39.241Z,52.90
2018-04-15T05:36:06.324Z,53.40
2018-04-15T05:38:33.365Z,53.40
2018-04-15T05:41:01.159Z,54.50
2018-04-15T05:43:28.290Z,54.40
2018-04-15T05:45:56.066Z,54.30
2018-04-15T05:48:23.118Z,54.40
2018-04-15T05:50:50.165Z,55.30
2018-04-15T05:53:17.226Z,55.30
2018-04-15T05:55:44.279Z,55.80
2018-04-15T05:58:11.366Z,56.40
2018-04-15T06:00:39.190Z,60.00
2018-04-15T06:03:06.283Z,60.00
2018-04-15T06:05:33.363Z,61.80
2018-04-15T06:08:00.393Z,62.20
2018-04-15T06:10:28.183Z,55.40
2018-04-15T06:12:55.195Z,55.40
2018-04-15T06:15:23.029Z,54.20
2018-04-15T06:17:50.084Z,54.20
2018-04-15T06:20:17.138Z,55.10
2018-04-15T06:22:44.181Z,53.60
2018-04-15T06:25:11.223Z,54.40
2018-04-15T06:27:38.264Z,54.40
2018-04-15T06:30:05.351Z,53.40
2018-04-15T06:32:32.398Z,53.00
2018-04-15T06:35:00.185Z,53.20
2018-04-15T06:37:27.221Z,53.20
2018-04-15T06:39:55.024Z,51.70
2018-04-15T06:42:22.048Z,51.70
2018-04-15T06:44:49.178Z,53.30
2018-04-15T06:47:16.930Z,54.40
2018-04-15T06:49:43.973Z,54.40
2018-04-15T06:52:11.029Z,54.70
2018-04-15T06:54:38.035Z,54.30
2018-04-15T06:57:05.088Z,53.90
2018-04-15T06:59:32.128Z,53.30
2018-04-15T07:01:59.255Z,52.60
2018-04-15T07:04:26.474Z,51.20
2018-04-15T07:06:54.282Z,49.90
2018-04-15T07:09:21.422Z,49.80
2018-04-15T07:11:48.498Z,46.10
2018-04-15T07:14:15.599Z,45.90
2018-04-15T07:16:43.421Z,47.80
2018-04-15T07:19:10.536Z,47.70
2018-04-15T07:21:37.821Z,47.90
2018-04-15T07:24:04.900Z,48.00
2018-04-15T07:26:32.710Z,47.10
2018-04-15T07:28:59.764Z,47.10
2018-04-15T07:31:26.779Z,46.80
2018-04-15T07:33:54.535Z,46.20
2018-04-15T07:36:22.373Z,46.90
2018-04-15T07:38:49.438Z,46.80
2018-04-15T07:41:17.360Z,45.70
2018-04-15T07:43:44.445Z,45.60
2018-04-15T07:46:11.567Z,44.80
2018-04-15T07:48:38.700Z,46.00
2018-04-15T07:51:05.800Z,46.50
2018-04-15T07:53:32.880Z,47.70
2018-04-15T07:55:59.920Z,47.00
2018-04-15T07:58:26.904Z,47.10
2018-04-15T08:00:53.928Z,46.90
2018-04-15T08:03:20.907Z,47.10
2018-04-15T08:05:47.891Z,47.20
2018-04-15T08:08:14.869Z,48.40
2018-04-15T08:10:41.888Z,47.90
2018-04-15T08:13:09.600Z,48.30
2018-04-15T08:15:36.635Z,48.40
2018-04-15T08:18:03.644Z,48.90
2018-04-15T08:20:31.411Z,48.50
2018-04-15T08:22:59.257Z,48.20
2018-04-15T08:25:26.240Z,48.20
2018-04-15T08:27:53.266Z,48.80
2018-04-15T08:30:21.013Z,47.30
2018-04-15T08:32:48.310Z,47.30
2018-04-15T08:35:15.366Z,47.60
2018-04-15T08:37:42.493Z,45.80
2018-04-15T08:40:10.330Z,45.90
2018-04-15T08:42:37.373Z,45.90
2018-04-15T08:45:04.506Z,46.50
2018-04-15T08:47:31.558Z,47.80
2018-04-15T08:49:58.633Z,45.10
2018-04-15T08:52:25.745Z,46.00
2018-04-15T08:54:52.818Z,44.80
2018-04-15T08:57:20.693Z,46.90
2018-04-15T08:59:47.797Z,46.80
2018-04-15T09:02:14.848Z,47.10
2018-04-15T09:04:41.948Z,49.40
2018-04-15T09:07:09.737Z,48.90
2018-04-15T09:09:36.777Z,48.90
2018-04-15T09:12:03.865Z,47.20
2018-04-15T09:14:30.968Z,47.60
2018-04-15T09:16:58.778Z,46.30
2018-04-15T09:19:25.850Z,46.30
2018-04-15T09:21:52.910Z,44.90
2018-04-15T09:24:19.989Z,45.30
2018-04-15T09:26:47.042Z,43.30
2018-04-15T09:29:14.072Z,43.50
2018-04-15T09:31:42.554Z,43.60
2018-04-15T09:34:09.615Z,43.60
2018-04-15T09:36:36.722Z,42.60
2018-04-15T09:39:03.972Z,42.50
2018-04-15T09:41:31.072Z,42.80
2018-04-15T09:43:58.156Z,42.40
2018-04-15T09:46:25.311Z,41.20
2018-04-15T09:48:52.403Z,41.50
2018-04-15T09:51:19.514Z,39.90
2018-04-15T09:53:46.609Z,42.20
2018-04-15T09:56:13.689Z,42.20
2018-04-15T09:58:40.792Z,42.90
2018-04-15T10:01:08.673Z,43.50
2018-04-15T10:03:35.783Z,43.50
2018-04-15T10:06:02.888Z,43.60
2018-04-15T10:08:29.958Z,42.80
2018-04-15T10:10:57.030Z,42.50
2018-04-15T10:13:24.871Z,41.80
2018-04-15T10:15:51.965Z,41.80
2018-04-15T10:18:19.780Z,43.30
2018-04-15T10:20:46.985Z,43.30
2018-04-15T10:23:14.806Z,41.70
2018-04-15T10:25:41.885Z,41.80
2018-04-15T10:28:08.946Z,44.60
2018-04-15T10:30:36.851Z,40.70
2018-04-15T10:33:03.939Z,40.70
2018-04-15T10:35:31.026Z,41.80
2018-04-15T10:37:58.112Z,43.80
2018-04-15T10:40:25.172Z,43.90
2018-04-15T10:42:52.267Z,47.10
2018-04-15T10:45:19.357Z,47.50
2018-04-15T10:47:46.405Z,46.30
2018-04-15T10:50:13.471Z,48.30
2018-04-15T10:52:40.553Z,52.20
2018-04-15T10:55:07.603Z,54.80
2018-04-15T10:57:34.685Z,54.80
2018-04-15T11:00:01.748Z,54.90
2018-04-15T11:02:28.818Z,54.00
2018-04-15T11:04:55.846Z,53.70
2018-04-15T11:07:22.891Z,51.00
2018-04-15T11:09:49.963Z,49.90
2018-04-15T11:12:17.011Z,50.50
2018-04-15T11:14:44.846Z,49.70
2018-04-15T11:17:11.890Z,49.70
2018-04-15T11:19:38.942Z,49.90
2018-04-15T11:22:06.031Z,49.50
2018-04-15T11:24:33.816Z,48.90
2018-04-15T11:27:01.623Z,45.00
2018-04-15T11:29:29.628Z,45.00
2018-04-15T11:31:57.423Z,46.60
2018-04-15T11:34:24.519Z,46.60
2018-04-15T11:36:51.603Z,45.60
2018-04-15T11:39:19.417Z,46.50
2018-04-15T11:41:46.495Z,46.50
2018-04-15T11:44:13.601Z,48.70
2018-04-15T11:46:40.673Z,45.30
2018-04-15T11:49:07.741Z,48.50
2018-04-15T11:51:34.889Z,48.80
2018-04-15T11:54:01.911Z,51.30
2018-04-15T11:56:28.998Z,51.20
2018-04-15T11:58:56.852Z,51.30
2018-04-15T12:01:24.680Z,52.20
2018-04-15T12:03:51.770Z,52.20
2018-04-15T12:06:18.817Z,53.00
2018-04-15T12:08:46.677Z,52.40
2018-04-15T12:11:13.777Z,52.40
2018-04-15T12:13:40.802Z,55.00
2018-04-15T12:16:08.603Z,52.20
2018-04-15T12:18:35.693Z,52.20
2018-04-15T12:21:02.768Z,53.40
2018-04-15T12:23:29.836Z,52.50
2018-04-15T12:25:56.911Z,52.80
2018-04-15T12:28:23.984Z,53.10
2018-04-15T12:30:51.079Z,50.50
2018-04-15T12:33:18.125Z,49.30
2018-04-15T12:35:45.217Z,48.70
2018-04-15T12:38:13.059Z,48.40
2018-04-15T12:40:40.149Z,48.40
2018-04-15T12:43:07.217Z,48.70
2018-04-15T12:45:34.324Z,49.80
2018-04-15T12:48:01.385Z,50.20
2018-04-15T12:50:28.516Z,50.40
2018-04-15T12:52:55.628Z,50.80
2018-04-15T12:55:22.976Z,50.50
2018-04-15T12:57:50.109Z,50.40
2018-04-15T13:00:17.262Z,48.00
2018-04-15T13:02:45.154Z,45.60
2018-04-15T13:05:12.242Z,45.70
2018-04-15T13:07:39.326Z,47.30
2018-04-15T13:10:06.384Z,45.70
2018-04-15T13:12:33.419Z,46.20
2018-04-15T13:15:00.521Z,46.60
2018-04-15T13:17:27.618Z,44.50
2018-04-15T13:19:55.448Z,42.80
2018-04-15T13:22:22.499Z,42.80
2018-04-15T13:24:49.553Z,42.60
2018-04-15T13:27:16.625Z,41.40
2018-04-15T13:29:44.458Z,42.00
2018-04-15T13:32:11.529Z,42.00
2018-04-15T13:34:39.393Z,47.30
2018-04-15T13:37:06.444Z,47.30
2018-04-15T13:39:33.551Z,43.20
2018-04-15T13:42:00.620Z,43.20
2018-04-15T13:44:27.688Z,43.90
2018-04-15T13:46:54.729Z,45.50
2018-04-15T13:49:22.536Z,43.30
2018-04-15T13:51:49.592Z,43.20
2018-04-15T13:54:16.690Z,42.80
2018-04-15T13:56:43.788Z,45.00
2018-04-15T13:59:10.874Z,45.60
2018-04-15T14:01:37.973Z,45.00
2018-04-15T14:04:05.064Z,46.20
2018-04-15T14:06:32.146Z,46.70
2018-04-15T14:08:59.946Z,44.80
2018-04-15T14:11:27.066Z,44.90
2018-04-15T14:13:54.878Z,45.80
2018-04-15T14:16:21.933Z,45.80
2018-04-15T14:18:49.008Z,46.50
2018-04-15T14:21:16.166Z,45.70
2018-04-15T14:23:43.282Z,45.00
2018-04-15T14:26:10.402Z,44.70
2018-04-15T14:28:37.513Z,46.90
2018-04-15T14:31:04.593Z,46.20
2018-04-15T14:33:31.678Z,45.80
2018-04-15T14:35:58.779Z,45.70
2018-04-15T14:38:25.832Z,42.10
2018-04-15T14:40:52.954Z,43.90
2018-04-15T14:43:20.039Z,41.60
2018-04-15T14:45:47.149Z,43.60
2018-04-15T14:48:14.256Z,43.80
2018-04-15T14:50:41.359Z,45.50
2018-04-15T14:53:09.174Z,46.20
2018-04-15T14:55:36.267Z,46.20
2018-04-15T14:58:03.357Z,46.90
2018-04-15T15:00:30.466Z,46.80
2018-04-15T15:02:58.344Z,46.30
2018-04-15T15:05:25.561Z,46.30
2018-04-15T15:07:52.724Z,45.00
2018-04-15T15:10:19.931Z,44.10
2018-04-15T15:12:47.014Z,44.30
2018-04-15T15:15:14.101Z,44.30
2018-04-15T15:17:41.185Z,43.90
2018-04-15T15:20:08.329Z,41.10
2018-04-15T15:22:35.316Z,40.40
2018-04-15T15:25:02.354Z,38.60
2018-04-15T15:27:29.418Z,38.70
2018-04-15T15:29:57.357Z,39.90
2018-04-15T15:32:24.434Z,39.90
2018-04-15T15:34:51.429Z,39.60
2018-04-15T15:37:18.461Z,39.10
2018-04-15T15:39:45.686Z,39.00
2018-04-15T15:42:16.211Z,39.50
2018-04-15T15:44:45.579Z,39.50
2018-04-15T15:47:12.681Z,39.50
2018-04-15T15:49:40.651Z,39.80
2018-04-15T15:52:08.471Z,40.80
2018-04-15T15:54:35.611Z,40.70
2018-04-15T15:57:02.621Z,41.10
2018-04-15T15:59:29.701Z,41.00
2018-04-15T16:01:56.683Z,42.20
2018-04-15T16:04:23.721Z,42.10
2018-04-15T16:06:50.796Z,43.20
2018-04-15T16:09:18.646Z,42.70
2018-04-15T16:11:45.662Z,42.70
2018-04-15T16:14:12.812Z,44.10
2018-04-15T16:16:39.976Z,44.40
2018-04-15T16:19:07.003Z,44.50
2018-04-15T16:21:33.998Z,44.80
2018-04-15T16:24:03.238Z,45.90
2018-04-15T16:26:30.661Z,45.90
2018-04-15T16:28:58.471Z,47.00
2018-04-15T16:31:25.541Z,47.00
2018-04-15T16:33:52.578Z,47.60
2018-04-15T16:36:19.618Z,47.90
2018-04-15T16:38:46.623Z,48.50
2018-04-15T16:41:14.444Z,48.90
2018-04-15T16:43:41.444Z,48.90
2018-04-15T16:46:08.493Z,49.80
2018-04-15T16:48:35.543Z,48.30
2018-04-15T16:51:02.551Z,49.50
2018-04-15T16:53:29.605Z,49.80
2018-04-15T16:55:57.395Z,50.20
2018-04-15T16:58:24.643Z,50.20
2018-04-15T17:00:52.416Z,51.00
2018-04-15T17:03:19.463Z,51.00
2018-04-15T17:05:46.536Z,51.20
2018-04-15T17:08:13.593Z,50.50
2018-04-15T17:10:40.677Z,50.80
2018-04-15T17:13:08.468Z,51.40
2018-04-15T17:15:35.532Z,51.40
2018-04-15T17:18:02.545Z,52.60
2018-04-15T17:20:30.342Z,53.00
2018-04-15T17:22:57.419Z,53.00
2018-04-15T17:25:24.448Z,53.40
2018-04-15T17:27:51.502Z,54.00
2018-04-15T17:30:18.550Z,53.70
2018-04-15T17:32:45.552Z,54.50
2018-04-15T17:35:12.594Z,54.50
2018-04-15T17:37:40.352Z,55.60
2018-04-15T17:40:08.128Z,55.20
2018-04-15T17:42:35.854Z,54.50
2018-04-15T17:45:02.903Z,54.50
2018-04-15T17:47:29.904Z,54.40
2018-04-15T17:49:56.887Z,54.60
2018-04-15T17:52:23.948Z,54.70
2018-04-15T17:54:50.965Z,55.00
2018-04-15T17:57:18.772Z,55.70
2018-04-15T17:59:45.793Z,55.80
2018-04-15T18:02:12.810Z,55.50
2018-04-15T18:04:39.823Z,55.90
2018-04-15T18:07:07.625Z,54.90
2018-04-15T18:09:34.608Z,54.90
2018-04-15T18:12:01.641Z,54.60
2018-04-15T18:14:28.638Z,54.80
2018-04-15T18:16:56.358Z,55.10
2018-04-15T18:19:23.413Z,55.10
2018-04-15T18:21:50.445Z,55.50
2018-04-15T18:24:17.423Z,56.30
2018-04-15T18:26:44.461Z,56.10
2018-04-15T18:29:11.529Z,56.40
2018-04-15T18:31:39.362Z,56.40
2018-04-15T18:34:12.378Z,56.40
2018-04-15T18:36:40.144Z,56.70
2018-04-15T18:39:08.881Z,57.40
2018-04-15T18:41:35.941Z,57.40
2018-04-15T18:44:02.941Z,57.40
2018-04-15T18:46:30.761Z,58.20
2018-04-15T18:48:57.844Z,58.10
2018-04-15T18:51:25.599Z,58.30
2018-04-15T18:53:52.752Z,59.00
2018-04-15T18:56:21.520Z,58.80
2018-04-15T18:58:48.624Z,58.80
2018-04-15T19:01:15.682Z,58.60
2018-04-15T19:03:43.534Z,58.20
2018-04-15T19:06:10.612Z,58.00
2018-04-15T19:08:37.821Z,57.40
2018-04-15T19:11:05.591Z,57.00
2018-04-15T19:13:32.658Z,56.90
2018-04-15T19:15:59.764Z,56.70
2018-04-15T19:18:26.864Z,57.20
2018-04-15T19:20:53.975Z,57.60
2018-04-15T19:23:20.987Z,57.40
2018-04-15T19:25:48.014Z,57.70
2018-04-15T19:28:15.428Z,57.80
2018-04-15T19:30:43.245Z,58.20
2018-04-15T19:33:10.314Z,58.20
2018-04-15T19:35:37.424Z,57.80
2018-04-15T19:38:04.847Z,57.90
2018-04-15T19:40:33.582Z,58.80
2018-04-15T19:43:00.636Z,58.80
2018-04-15T19:45:27.700Z,59.50
2018-04-15T19:47:54.841Z,60.00
2018-04-15T19:50:22.120Z,61.10
2018-04-15T19:52:50.719Z,63.40
2018-04-15T19:55:17.961Z,63.40
2018-04-15T19:57:46.146Z,64.30
2018-04-15T20:00:14.766Z,64.10
2018-04-15T20:02:41.834Z,64.10
2018-04-15T20:05:08.996Z,64.00
2018-04-15T20:07:36.020Z,64.20
2018-04-15T20:10:03.228Z,65.10
2018-04-15T20:12:30.305Z,66.90
2018-04-15T20:14:57.320Z,65.40
2018-04-15T20:17:25.059Z,65.20
2018-04-15T20:19:52.124Z,64.70
2018-04-15T20:22:19.922Z,65.00
2018-04-15T20:24:46.932Z,64.90
2018-04-15T20:27:14.805Z,67.60
2018-04-15T20:29:42.614Z,68.60
2018-04-15T20:32:09.603Z,68.60
2018-04-15T20:34:37.479Z,68.60
2018-04-15T20:37:04.590Z,67.80
2018-04-15T20:39:31.669Z,67.30
2018-04-15T20:41:58.771Z,67.60
2018-04-15T20:44:25.846Z,69.20
2018-04-15T20:46:52.916Z,70.00
2018-04-15T20:49:20.794Z,71.60
2018-04-15T20:51:48.646Z,71.70
2018-04-15T20:54:16.449Z,72.00
2018-04-15T20:56:43.481Z,72.00
2018-04-15T20:59:10.501Z,71.90
2018-04-15T21:01:37.501Z,72.90
2018-04-15T21:04:04.606Z,73.00
2018-04-15T21:06:32.491Z,73.80
2018-04-15T21:09:00.241Z,74.10
2018-04-15T21:11:27.982Z,74.80
2018-04-15T21:13:55.024Z,74.60
2018-04-15T21:16:22.051Z,74.90
2018-04-15T21:18:49.043Z,75.40
2018-04-15T21:21:16.804Z,75.70
2018-04-15T21:23:44.597Z,76.10
2018-04-15T21:26:11.633Z,76.10
2018-04-15T21:28:39.024Z,76.50
2018-04-15T21:31:06.038Z,76.40
2018-04-15T21:33:33.161Z,76.80
2018-04-15T21:36:00.196Z,76.60
2018-04-15T21:38:27.271Z,76.90
2018-04-15T21:40:54.271Z,76.90
2018-04-15T21:43:21.313Z,76.80
2018-04-15T21:45:48.425Z,76.90
2018-04-15T21:48:15.608Z,76.50
2018-04-15T21:50:42.713Z,76.10
2018-04-15T21:53:10.578Z,76.90
2018-04-15T21:55:37.688Z,76.80
2018-04-15T21:58:04.788Z,76.70
2018-04-15T22:00:31.938Z,77.30
2018-04-15T22:02:59.988Z,77.50
2018-04-15T22:05:27.933Z,78.30
2018-04-15T22:07:55.013Z,78.30
2018-04-15T22:10:22.093Z,78.60
2018-04-15T22:12:49.345Z,78.10
2018-04-15T22:15:16.471Z,77.50
2018-04-15T22:17:43.535Z,77.10
2018-04-15T22:20:10.590Z,76.60
2018-04-15T22:22:37.680Z,76.30
2018-04-15T22:25:04.793Z,76.30
2018-04-15T22:27:31.958Z,76.70
2018-04-15T22:29:59.003Z,76.20
2018-04-15T22:32:26.056Z,76.90
2018-04-15T22:34:53.142Z,77.40
2018-04-15T22:37:20.934Z,78.00
2018-04-15T22:39:48.051Z,78.00
2018-04-15T22:42:15.113Z,78.90
2018-04-15T22:44:42.951Z,80.00
2018-04-15T22:47:10.004Z,80.00
2018-04-15T22:49:43.130Z,80.20
2018-04-15T22:52:10.176Z,81.10
2018-04-15T22:54:37.256Z,81.60
2018-04-15T22:57:10.417Z,82.70
2018-04-15T22:59:37.517Z,83.50
2018-04-15T23:02:04.623Z,83.90
2018-04-15T23:04:31.653Z,83.90
2018-04-15T23:06:58.728Z,84.20
2018-04-15T23:09:25.798Z,84.30
2018-04-15T23:11:52.917Z,85.10
2018-04-15T23:14:19.941Z,85.20
2018-04-15T23:16:47.001Z,85.20
2018-04-15T23:19:14.039Z,84.20
2018-04-15T23:21:41.086Z,83.20
2018-04-15T23:24:08.139Z,82.50
2018-04-15T23:26:35.228Z,81.20
2018-04-15T23:29:02.277Z,79.80
2018-04-15T23:31:29.318Z,81.00
2018-04-15T23:33:56.331Z,79.80
2018-04-15T23:36:23.360Z,78.50
2018-04-15T23:38:51.191Z,78.50
2018-04-15T23:41:18.213Z,78.50
2018-04-15T23:43:45.332Z,80.30
2018-04-15T23:46:12.339Z,82.00
2018-04-15T23:48:39.476Z,82.50
2018-04-15T23:51:06.526Z,82.60
2018-04-15T23:53:33.569Z,83.50
2018-04-15T23:56:00.591Z,84.60
2018-04-15T23:58:27.670Z,85.60
